createdAt,value
2023-03-04T00:03:25.432Z,100311.59
2023-03-04T00:08:31.660Z,100310.95
2023-03-04T00:13:37.584Z,100306.87
2023-03-04T00:18:43.365Z,100302.94
2023-03-04T00:23:49.685Z,100304.17
2023-03-04T00:28:56.147Z,100301.33
2023-03-04T00:34:02.145Z,100290.08
2023-03-04T00:39:08.125Z,100278.16
2023-03-04T00:44:14.934Z,100265.79
2023-03-04T00:49:21.228Z,100258.85
2023-03-04T00:54:27.322Z,100254.44
2023-03-04T00:59:33.034Z,100244.02
2023-03-04T01:04:39.754Z,100230.54
2023-03-04T01:09:45.878Z,100210.38
2023-03-04T01:14:52.082Z,100205.77
2023-03-04T01:19:57.749Z,100193.59
2023-03-04T01:25:04.022Z,100174.61
2023-03-04T01:30:13.459Z,100151.05
2023-03-04T01:35:19.711Z,100125.36
2023-03-04T01:40:25.416Z,100115.22
2023-03-04T01:45:33.065Z,100104.60
2023-03-04T01:50:39.033Z,100105.96
2023-03-04T01:55:45.633Z,100097.21
2023-03-04T02:00:51.346Z,100080.44
2023-03-04T02:05:58.305Z,100079.44
2023-03-04T02:11:04.320Z,100081.50
2023-03-04T02:16:11.005Z,100078.23
2023-03-04T02:21:23.424Z,100072.24
2023-03-04T02:26:30.286Z,100071.08
2023-03-04T02:31:39.125Z,100073.84
2023-03-04T02:36:46.522Z,100072.47
2023-03-04T02:41:55.931Z,100070.46
2023-03-04T02:47:04.076Z,100070.68
2023-03-04T02:52:13.354Z,100065.06
2023-03-04T02:57:19.546Z,100059.59
2023-03-04T03:02:28.903Z,100050.73
2023-03-04T03:07:36.408Z,100046.65
2023-03-04T03:12:42.374Z,100044.77
2023-03-04T03:17:48.069Z,100038.96
2023-03-04T03:22:54.246Z,100032.33
2023-03-04T03:28:00.094Z,100034.25
2023-03-04T03:33:06.308Z,100034.77
2023-03-04T03:38:12.651Z,100024.85
2023-03-04T03:43:18.729Z,100018.05
2023-03-04T03:48:24.675Z,100013.12
2023-03-04T03:53:30.741Z,100006.11
2023-03-04T03:58:36.619Z,100000.11
2023-03-04T04:03:42.238Z,99996.75
2023-03-04T04:08:48.431Z,99998.31
2023-03-04T04:13:54.841Z,99996.95
2023-03-04T04:19:00.960Z,99993.70
2023-03-04T04:24:07.325Z,99986.54
2023-03-04T04:29:15.372Z,99984.52
2023-03-04T04:34:21.604Z,99980.58
2023-03-04T04:39:27.521Z,99975.29
2023-03-04T04:44:33.747Z,99972.58
2023-03-04T04:49:39.779Z,99963.84
2023-03-04T04:54:45.661Z,99958.89
2023-03-04T04:59:51.779Z,99956.66
2023-03-04T05:04:57.373Z,99954.80
2023-03-04T05:10:04.142Z,99951.05
2023-03-04T05:15:11.803Z,99950.02
2023-03-04T05:20:18.117Z,99946.09
2023-03-04T05:25:24.021Z,99942.88
2023-03-04T05:30:29.976Z,99937.73
2023-03-04T05:35:36.472Z,99929.54
2023-03-04T05:40:43.057Z,99935.18
2023-03-04T05:45:51.602Z,99940.33
2023-03-04T05:50:59.537Z,99930.59
2023-03-04T05:56:11.177Z,99917.39
2023-03-04T06:01:17.782Z,99908.33
2023-03-04T06:06:23.914Z,99903.71
2023-03-04T06:11:29.988Z,99896.70
2023-03-04T06:16:35.973Z,99892.43
2023-03-04T06:21:41.962Z,99889.36
2023-03-04T06:26:47.656Z,99889.87
2023-03-04T06:31:54.530Z,99888.67
2023-03-04T06:37:00.892Z,99886.29
2023-03-04T06:42:07.442Z,99890.06
2023-03-04T06:47:13.820Z,99894.70
2023-03-04T06:52:20.026Z,99896.41
2023-03-04T06:57:26.190Z,99896.92
2023-03-04T07:02:32.687Z,99898.31
2023-03-04T07:07:38.981Z,99895.73
2023-03-04T07:12:44.789Z,99902.60
2023-03-04T07:17:51.361Z,99898.31
2023-03-04T07:22:57.225Z,99896.27
2023-03-04T07:28:03.165Z,99890.95
2023-03-04T07:33:09.098Z,99888.20
2023-03-04T07:38:15.016Z,99885.80
2023-03-04T07:43:23.748Z,99884.62
2023-03-04T07:48:30.786Z,99876.89
2023-03-04T07:53:37.809Z,99869.34
2023-03-04T07:58:44.256Z,99867.80
2023-03-04T08:03:51.014Z,99857.16
2023-03-04T08:09:01.184Z,99852.70
2023-03-04T08:14:07.477Z,99851.14
2023-03-04T08:19:13.996Z,99852.16
2023-03-04T08:24:19.959Z,99848.05
2023-03-04T08:29:27.613Z,99847.52
2023-03-04T08:34:33.513Z,99846.14
2023-03-04T08:39:39.421Z,99844.08
2023-03-04T08:44:45.283Z,99846.14
2023-03-04T08:49:52.265Z,99842.17
2023-03-04T08:54:58.356Z,99842.16
2023-03-04T09:00:04.744Z,99831.87
2023-03-04T09:05:11.729Z,99821.37
2023-03-04T09:10:17.609Z,99818.74
2023-03-04T09:15:23.272Z,99815.90
2023-03-04T09:20:28.834Z,99811.90
2023-03-04T09:25:35.318Z,99813.05
2023-03-04T09:30:41.229Z,99814.05
2023-03-04T09:35:49.211Z,99811.16
2023-03-04T09:40:55.659Z,99806.23
2023-03-04T09:46:08.516Z,99803.86
2023-03-04T09:51:22.210Z,99800.95
2023-03-04T09:56:30.127Z,99798.58
2023-03-04T10:01:43.740Z,99794.48
2023-03-04T10:06:54.603Z,99790.71
2023-03-04T10:12:01.813Z,99785.55
2023-03-04T10:17:14.685Z,99780.58
2023-03-04T10:22:32.119Z,99776.27
2023-03-04T10:27:38.386Z,99776.38
2023-03-04T10:32:47.997Z,99770.98
2023-03-04T10:37:54.557Z,99764.48
2023-03-04T10:43:01.573Z,99758.48
2023-03-04T10:48:17.833Z,99751.45
2023-03-04T10:53:41.353Z,99750.10
2023-03-04T10:58:47.293Z,99749.27
2023-03-04T11:03:55.927Z,99746.89
2023-03-04T11:09:02.077Z,99741.73
2023-03-04T11:14:17.686Z,99735.39
2023-03-04T11:19:27.291Z,99735.25
2023-03-04T11:24:37.108Z,99730.63
2023-03-04T11:29:49.177Z,99729.54
2023-03-04T11:35:09.615Z,99727.16
2023-03-04T11:40:18.310Z,99725.15
2023-03-04T11:45:32.866Z,99725.02
2023-03-04T11:50:48.908Z,99721.41
2023-03-04T11:56:11.433Z,99719.89
2023-03-04T12:01:27.237Z,99721.11
2023-03-04T12:06:41.718Z,99720.05
2023-03-04T12:11:58.459Z,99719.20
2023-03-04T12:17:31.357Z,99721.29
2023-03-04T12:22:46.098Z,99718.34
2023-03-04T12:28:01.507Z,99711.08
2023-03-04T12:33:18.150Z,99708.73
2023-03-04T12:38:43.820Z,99703.95
2023-03-04T12:44:00.200Z,99697.23
2023-03-04T12:49:23.415Z,99695.70
2023-03-04T12:54:36.175Z,99694.35
2023-03-04T12:59:51.439Z,99692.67
2023-03-04T13:05:05.032Z,99688.95
2023-03-04T13:10:13.875Z,99689.61
2023-03-04T13:15:30.836Z,99683.51
2023-03-04T13:20:39.574Z,99679.14
2023-03-04T13:25:46.814Z,99678.93
2023-03-04T13:31:18.250Z,99682.42
2023-03-04T13:36:57.353Z,99719.42
2023-03-04T13:42:24.883Z,99734.75
2023-03-04T13:47:43.377Z,99717.13
2023-03-04T13:52:52.015Z,99697.44
2023-03-04T13:57:58.684Z,99691.48
2023-03-04T14:03:20.314Z,99678.23
2023-03-04T14:08:27.853Z,99666.11
2023-03-04T14:13:34.044Z,99677.52
2023-03-04T14:18:40.404Z,99673.33
2023-03-04T14:23:46.187Z,99677.03
2023-03-04T14:28:57.522Z,99678.91
2023-03-04T14:34:04.471Z,99674.35
2023-03-04T14:39:18.052Z,99678.34
2023-03-04T14:44:36.256Z,99682.77
2023-03-04T14:49:43.296Z,99694.20
2023-03-04T14:55:02.339Z,99708.29
2023-03-04T15:00:26.372Z,99712.05
2023-03-04T15:05:35.915Z,99715.24
2023-03-04T15:10:42.026Z,99720.17
2023-03-04T15:15:50.001Z,99727.14
2023-03-04T15:21:01.229Z,99732.52
2023-03-04T15:26:12.125Z,99744.09
2023-03-04T15:31:20.544Z,99766.70
2023-03-04T15:36:26.721Z,99786.92
2023-03-04T15:41:32.946Z,99808.27
2023-03-04T15:46:38.893Z,99828.20
2023-03-04T15:51:44.945Z,99842.08
2023-03-04T15:56:51.981Z,99850.82
2023-03-04T16:02:01.111Z,99858.66
2023-03-04T16:07:07.135Z,99876.95
2023-03-04T16:12:15.214Z,99896.05
2023-03-04T16:17:21.349Z,99900.27
2023-03-04T16:22:30.156Z,99908.73
2023-03-04T16:27:37.288Z,99919.37
2023-03-04T16:32:43.546Z,99926.61
2023-03-04T16:37:51.226Z,99932.83
2023-03-04T16:42:58.067Z,99947.77
2023-03-04T16:48:04.417Z,99957.92
2023-03-04T16:53:23.747Z,99967.05
2023-03-04T16:58:29.816Z,99975.02
2023-03-04T17:03:35.556Z,99982.81
2023-03-04T17:08:41.854Z,100000.36
2023-03-04T17:13:48.780Z,100013.82
2023-03-04T17:18:55.203Z,100018.21
2023-03-04T17:24:03.237Z,100024.83
2023-03-04T17:29:09.267Z,100032.95
2023-03-04T17:34:15.744Z,100038.01
2023-03-04T17:39:21.907Z,100046.27
2023-03-04T17:44:27.730Z,100051.46
2023-03-04T17:49:36.585Z,100057.96
2023-03-04T17:54:42.634Z,100061.36
2023-03-04T17:59:49.471Z,100060.80
2023-03-04T18:04:55.343Z,100065.83
2023-03-04T18:10:01.299Z,100068.98
2023-03-04T18:15:08.726Z,100069.41
2023-03-04T18:20:15.252Z,100068.52
2023-03-04T18:25:21.465Z,100077.05
2023-03-04T18:30:27.646Z,100091.83
2023-03-04T18:35:33.677Z,100093.13
2023-03-04T18:40:42.173Z,100100.02
2023-03-04T18:45:48.452Z,100106.80
2023-03-04T18:50:58.285Z,100109.85
2023-03-04T18:56:12.250Z,100112.38
2023-03-04T19:01:22.378Z,100111.65
2023-03-04T19:06:29.608Z,100111.59
2023-03-04T19:11:35.503Z,100118.10
2023-03-04T19:16:41.782Z,100124.24
2023-03-04T19:21:48.170Z,100127.58
2023-03-04T19:26:54.865Z,100130.56
2023-03-04T19:32:01.068Z,100136.05
2023-03-04T19:37:07.001Z,100138.13
2023-03-04T19:42:13.656Z,100142.58
2023-03-04T19:47:19.824Z,100148.00
2023-03-04T19:52:25.914Z,100152.02
2023-03-04T19:57:32.535Z,100161.29
2023-03-04T20:02:39.052Z,100168.13
2023-03-04T20:07:45.346Z,100168.38
2023-03-04T20:12:52.930Z,100170.67
2023-03-04T20:17:59.032Z,100175.38
2023-03-04T20:23:05.687Z,100178.70
2023-03-04T20:28:11.796Z,100175.94
2023-03-04T20:33:17.683Z,100175.54
2023-03-04T20:38:23.913Z,100175.96
2023-03-04T20:43:31.267Z,100174.70
2023-03-04T20:48:37.040Z,100172.06
2023-03-04T20:53:42.924Z,100172.27
2023-03-04T20:58:49.081Z,100173.86
2023-03-04T21:03:55.038Z,100175.00
2023-03-04T21:09:05.589Z,100174.92
2023-03-04T21:14:14.592Z,100170.65
2023-03-04T21:19:22.400Z,100171.02
2023-03-04T21:24:30.086Z,100170.25
2023-03-04T21:29:36.068Z,100168.31
2023-03-04T21:34:45.867Z,100168.88
2023-03-04T21:39:51.653Z,100172.95
2023-03-04T21:44:57.499Z,100176.58
2023-03-04T21:50:03.607Z,100179.41
2023-03-04T21:55:10.420Z,100175.95
2023-03-04T22:00:17.786Z,100174.64
2023-03-04T22:05:23.652Z,100176.11
2023-03-04T22:10:29.280Z,100175.51
2023-03-04T22:15:35.111Z,100178.39
2023-03-04T22:20:43.529Z,100178.94
2023-03-04T22:25:49.562Z,100179.25
2023-03-04T22:30:56.227Z,100177.90
2023-03-04T22:36:05.157Z,100172.40
2023-03-04T22:41:17.900Z,100168.60
2023-03-04T22:46:26.860Z,100168.59
2023-03-04T22:51:32.999Z,100169.95
2023-03-04T22:56:39.246Z,100170.91
2023-03-04T23:01:45.267Z,100174.15
2023-03-04T23:06:51.616Z,100175.77
2023-03-04T23:11:57.573Z,100171.46
2023-03-04T23:17:04.172Z,100173.50
2023-03-04T23:22:10.096Z,100170.45
2023-03-04T23:27:16.041Z,100169.64
2023-03-04T23:32:21.933Z,100171.71
2023-03-04T23:37:28.033Z,100166.37
2023-03-04T23:42:33.652Z,100163.36
2023-03-04T23:47:39.598Z,100161.48
2023-03-04T23:52:45.915Z,100157.70
2023-03-04T23:57:51.785Z,100155.45
